Terminal Aerodrome Forecast
Issued by NWS

Home | Current Version | Previous Version | Text Only | Print | Product List | Glossary On
Versions: 1 2 3 4 5 6 7 8 9 10 11 12
376
FTUS42 KMLB 222322
TAFFPR
TAF
KFPR 222322Z 2300/2324 10009KT P6SM FEW025
     FM230300 09005KT P6SM SCT025
     FM231500 12012G18KT P6SM FEW030 SCT050=

USA.gov is the U.S. government's official web portal to all federal, state and local government web resources and services.